createdAt,value
2018-11-11T00:00:31.433Z,83.76
2018-11-11T00:02:58.884Z,83.89
2018-11-11T00:05:26.368Z,83.60
2018-11-11T00:07:53.573Z,83.87
2018-11-11T00:10:20.899Z,83.56
2018-11-11T00:12:48.192Z,83.65
2018-11-11T00:15:16.705Z,83.09
2018-11-11T00:17:44.971Z,84.04
2018-11-11T00:20:12.686Z,84.42
2018-11-11T00:22:40.419Z,83.45
2018-11-11T00:25:07.710Z,83.58
2018-11-11T00:27:35.769Z,83.39
2018-11-11T00:30:03.979Z,83.70
2018-11-11T00:32:31.674Z,82.77
2018-11-11T00:34:59.073Z,83.65
2018-11-11T00:37:26.302Z,83.68
2018-11-11T00:39:53.531Z,84.02
2018-11-11T00:42:20.937Z,83.95
2018-11-11T00:44:48.252Z,84.34
2018-11-11T00:47:15.740Z,84.25
2018-11-11T00:49:43.109Z,83.97
2018-11-11T00:52:10.370Z,83.65
2018-11-11T00:54:37.909Z,83.34
2018-11-11T00:57:05.982Z,83.35
2018-11-11T00:59:33.190Z,82.94
2018-11-11T01:02:00.530Z,82.87
2018-11-11T01:04:27.786Z,82.55
2018-11-11T01:06:55.005Z,82.80
2018-11-11T01:09:22.197Z,82.76
2018-11-11T01:11:49.514Z,83.11
2018-11-11T01:14:16.757Z,83.31
2018-11-11T01:16:43.978Z,82.92
2018-11-11T01:19:11.217Z,83.59
2018-11-11T01:21:38.420Z,83.70
2018-11-11T01:24:05.662Z,83.58
2018-11-11T01:26:33.169Z,83.74
2018-11-11T01:29:00.426Z,83.51
2018-11-11T01:31:27.579Z,83.75
2018-11-11T01:33:55.346Z,83.41
2018-11-11T01:36:22.535Z,83.55
2018-11-11T01:38:49.809Z,83.52
2018-11-11T01:41:17.148Z,83.26
2018-11-11T01:43:44.441Z,83.16
2018-11-11T01:46:11.640Z,82.94
2018-11-11T01:48:39.414Z,82.81
2018-11-11T01:51:06.978Z,82.95
2018-11-11T01:53:34.428Z,82.17
2018-11-11T01:56:01.794Z,82.57
2018-11-11T01:58:28.979Z,83.01
2018-11-11T02:00:56.263Z,82.89
2018-11-11T02:03:23.540Z,82.84
2018-11-11T02:05:50.792Z,82.55
2018-11-11T02:08:18.126Z,82.94
2018-11-11T02:10:45.501Z,82.36
2018-11-11T02:13:13.002Z,83.32
2018-11-11T02:15:40.633Z,83.28
2018-11-11T02:18:07.846Z,83.20
2018-11-11T02:20:35.407Z,83.38
2018-11-11T02:23:03.005Z,83.88
2018-11-11T02:25:30.235Z,82.59
2018-11-11T02:27:57.580Z,82.29
2018-11-11T02:30:24.719Z,83.10
2018-11-11T02:32:51.909Z,83.05
2018-11-11T02:35:19.134Z,82.89
2018-11-11T02:37:46.389Z,82.98
2018-11-11T02:40:14.887Z,83.66
2018-11-11T02:42:42.390Z,83.32
2018-11-11T02:45:10.829Z,83.54
2018-11-11T02:47:38.054Z,83.49
2018-11-11T02:50:06.782Z,83.20
2018-11-11T02:52:34.203Z,83.38
2018-11-11T02:55:01.384Z,83.26
2018-11-11T02:57:28.758Z,83.47
2018-11-11T02:59:56.071Z,83.21
2018-11-11T03:02:23.340Z,82.52
2018-11-11T03:04:50.620Z,82.00
2018-11-11T03:07:17.849Z,81.98
2018-11-11T03:09:45.090Z,82.19
2018-11-11T03:12:12.356Z,82.12
2018-11-11T03:14:39.585Z,81.66
2018-11-11T03:17:06.862Z,81.86
2018-11-11T03:19:34.034Z,81.34
2018-11-11T03:22:01.777Z,81.88
2018-11-11T03:24:29.142Z,81.36
2018-11-11T03:26:56.399Z,81.52
2018-11-11T03:29:23.739Z,82.32
2018-11-11T03:31:51.101Z,81.52
2018-11-11T03:34:18.265Z,81.56
2018-11-11T03:36:45.529Z,81.66
2018-11-11T03:39:12.723Z,80.68
2018-11-11T03:41:40.053Z,80.96
2018-11-11T03:44:08.149Z,80.97
2018-11-11T03:46:35.555Z,80.33
2018-11-11T03:49:02.846Z,80.17
2018-11-11T03:51:30.208Z,81.19
2018-11-11T03:53:57.519Z,80.06
2018-11-11T03:56:24.829Z,80.77
2018-11-11T03:58:53.389Z,80.66
2018-11-11T04:01:20.581Z,80.42
2018-11-11T04:03:47.759Z,80.73
2018-11-11T04:06:14.978Z,80.83
2018-11-11T04:08:42.299Z,80.77
2018-11-11T04:11:09.550Z,80.85
2018-11-11T04:13:36.801Z,80.45
2018-11-11T04:16:04.156Z,81.26
2018-11-11T04:18:31.415Z,81.25
2018-11-11T04:20:58.710Z,80.51
2018-11-11T04:23:26.101Z,80.57
2018-11-11T04:25:53.287Z,80.16
2018-11-11T04:28:20.639Z,80.78
2018-11-11T04:30:47.842Z,79.99
2018-11-11T04:33:15.338Z,80.38
2018-11-11T04:35:42.596Z,81.02
2018-11-11T04:38:09.898Z,80.71
2018-11-11T04:40:37.131Z,80.49
2018-11-11T04:43:04.810Z,80.74
2018-11-11T04:45:32.077Z,80.70
2018-11-11T04:47:59.387Z,80.77
2018-11-11T04:50:27.446Z,81.41
2018-11-11T04:52:54.712Z,81.61
2018-11-11T04:55:21.879Z,81.95
2018-11-11T04:57:56.013Z,81.54
2018-11-11T05:00:23.208Z,82.06
2018-11-11T05:02:50.354Z,82.02
2018-11-11T05:05:17.503Z,82.44
2018-11-11T05:07:44.750Z,82.50
2018-11-11T05:10:12.424Z,82.48
2018-11-11T05:12:39.637Z,82.94
2018-11-11T05:15:08.001Z,83.02
2018-11-11T05:17:35.361Z,82.51
2018-11-11T05:20:02.666Z,82.08
2018-11-11T05:22:29.974Z,82.62
2018-11-11T05:24:57.218Z,82.65
2018-11-11T05:27:24.378Z,81.81
2018-11-11T05:29:51.638Z,83.35
2018-11-11T05:32:18.835Z,82.36
2018-11-11T05:34:46.245Z,82.10
2018-11-11T05:37:13.535Z,82.33
2018-11-11T05:39:40.773Z,83.04
2018-11-11T05:42:07.954Z,83.73
2018-11-11T05:44:35.215Z,83.54
2018-11-11T05:47:02.535Z,83.30
2018-11-11T05:49:29.864Z,83.65
2018-11-11T05:51:57.070Z,83.59
2018-11-11T05:54:24.318Z,83.51
2018-11-11T05:56:51.564Z,84.35
2018-11-11T05:59:18.769Z,84.15
2018-11-11T06:01:46.045Z,84.49
2018-11-11T06:04:13.423Z,84.43
2018-11-11T06:06:40.671Z,84.82
2018-11-11T06:09:08.728Z,84.09
2018-11-11T06:11:36.083Z,84.07
2018-11-11T06:14:03.436Z,82.68
2018-11-11T06:16:30.701Z,83.66
2018-11-11T06:18:57.948Z,83.04
2018-11-11T06:21:25.114Z,82.48
2018-11-11T06:23:52.302Z,82.36
2018-11-11T06:26:19.507Z,81.84
2018-11-11T06:28:46.820Z,82.38
2018-11-11T06:31:14.030Z,82.61
2018-11-11T06:33:41.232Z,82.87
2018-11-11T06:36:08.478Z,82.62
2018-11-11T06:38:35.746Z,82.11
2018-11-11T06:41:02.969Z,81.77
2018-11-11T06:43:30.127Z,82.22
2018-11-11T06:45:57.281Z,81.69
2018-11-11T06:48:24.551Z,81.65
2018-11-11T06:50:51.876Z,82.09
2018-11-11T06:53:19.338Z,81.99
2018-11-11T06:55:47.446Z,81.78
2018-11-11T06:58:14.852Z,81.98
2018-11-11T07:00:41.984Z,81.96
2018-11-11T07:03:20.741Z,81.27
2018-11-11T07:05:48.007Z,81.45
2018-11-11T07:08:15.245Z,81.71
2018-11-11T07:10:42.433Z,81.25
2018-11-11T07:13:09.602Z,80.04
2018-11-11T07:15:36.911Z,80.07
2018-11-11T07:18:05.026Z,80.36
2018-11-11T07:20:32.202Z,79.53
2018-11-11T07:22:59.452Z,80.32
2018-11-11T07:25:26.766Z,78.80
2018-11-11T07:27:55.008Z,78.38
2018-11-11T07:30:22.193Z,79.09
2018-11-11T07:32:49.516Z,77.81
2018-11-11T07:35:16.748Z,77.82
2018-11-11T07:37:43.998Z,77.54
2018-11-11T07:40:13.240Z,77.82
2018-11-11T07:42:40.787Z,76.63
2018-11-11T07:45:08.398Z,76.77
2018-11-11T07:47:35.791Z,77.26
2018-11-11T07:50:03.409Z,77.48
2018-11-11T07:52:30.722Z,77.23
2018-11-11T07:54:57.852Z,76.84
2018-11-11T07:57:25.093Z,76.94
2018-11-11T07:59:52.346Z,76.83
2018-11-11T08:02:19.641Z,77.41
2018-11-11T08:04:46.854Z,77.15
2018-11-11T08:07:14.107Z,76.22
2018-11-11T08:09:41.258Z,76.49
2018-11-11T08:12:08.656Z,76.24
2018-11-11T08:14:35.957Z,76.73
2018-11-11T08:17:03.291Z,76.18
2018-11-11T08:19:30.496Z,75.90
2018-11-11T08:21:57.722Z,75.74
2018-11-11T08:24:24.899Z,75.47
2018-11-11T08:26:52.392Z,75.75
2018-11-11T08:31:57.805Z,74.74
2018-11-11T08:34:25.149Z,74.67
2018-11-11T08:36:52.394Z,73.97
2018-11-11T08:39:19.607Z,74.97
2018-11-11T08:41:47.001Z,74.67
2018-11-11T08:44:14.245Z,74.75
2018-11-11T08:46:43.612Z,74.96
2018-11-11T08:49:11.945Z,74.48
2018-11-11T08:51:39.199Z,74.95
2018-11-11T08:54:06.566Z,74.03
2018-11-11T08:56:33.834Z,73.93
2018-11-11T08:59:01.183Z,73.61
2018-11-11T09:01:28.430Z,73.61
2018-11-11T09:03:55.734Z,73.53
2018-11-11T09:06:23.069Z,73.49
2018-11-11T09:08:51.537Z,73.55
2018-11-11T09:11:19.167Z,72.06
2018-11-11T09:13:46.502Z,72.57
2018-11-11T09:16:13.746Z,72.64
2018-11-11T09:18:40.942Z,71.67
2018-11-11T09:21:08.415Z,72.27
2018-11-11T09:23:35.999Z,71.75
2018-11-11T09:26:03.317Z,71.68
2018-11-11T09:28:30.545Z,71.12
2018-11-11T09:30:57.799Z,71.24
2018-11-11T09:33:25.398Z,71.35
2018-11-11T09:35:52.830Z,70.81
2018-11-11T09:38:20.375Z,69.87
2018-11-11T09:40:47.664Z,70.40
2018-11-11T09:43:15.559Z,69.79
2018-11-11T09:45:42.795Z,69.83
2018-11-11T09:48:10.132Z,69.33
2018-11-11T09:50:37.593Z,69.94
2018-11-11T09:53:05.035Z,69.18
2018-11-11T09:55:32.444Z,70.00
2018-11-11T09:58:00.295Z,69.70
2018-11-11T10:00:27.938Z,68.87
2018-11-11T10:03:00.363Z,68.96
2018-11-11T10:05:32.591Z,69.15
2018-11-11T10:08:06.060Z,69.38
2018-11-11T10:10:43.265Z,69.11
2018-11-11T10:13:47.168Z,68.48
2018-11-11T10:16:50.026Z,68.76
2018-11-11T10:19:27.522Z,67.61
2018-11-11T10:22:07.099Z,67.08
2018-11-11T10:24:48.681Z,67.92
2018-11-11T10:28:25.905Z,67.13
2018-11-11T10:31:04.418Z,67.23
2018-11-11T10:33:38.512Z,67.45
2018-11-11T10:36:20.692Z,67.21
2018-11-11T10:39:51.865Z,66.80
2018-11-11T10:42:24.750Z,66.97
2018-11-11T10:47:02.486Z,66.34
2018-11-11T10:49:38.180Z,65.71
2018-11-11T10:52:05.561Z,64.96
2018-11-11T10:54:33.008Z,65.53
2018-11-11T10:57:00.489Z,65.27
2018-11-11T10:59:28.350Z,65.21
2018-11-11T11:02:01.148Z,64.56
2018-11-11T11:04:31.523Z,64.76
2018-11-11T11:07:07.499Z,64.25
2018-11-11T11:09:34.757Z,64.39
2018-11-11T11:12:03.878Z,64.80
2018-11-11T11:14:31.569Z,64.60
2018-11-11T11:16:58.744Z,64.15
2018-11-11T11:19:26.060Z,63.80
2018-11-11T11:21:53.452Z,63.79
2018-11-11T11:24:20.690Z,63.32
2018-11-11T11:26:48.082Z,63.60
2018-11-11T11:29:15.404Z,63.67
2018-11-11T11:31:42.764Z,63.85
2018-11-11T11:34:10.148Z,62.97
2018-11-11T11:36:37.506Z,62.84
2018-11-11T11:39:06.902Z,63.14
2018-11-11T11:41:34.491Z,62.60
2018-11-11T11:44:01.790Z,61.99
2018-11-11T11:46:29.127Z,61.60
2018-11-11T11:48:56.630Z,61.99
2018-11-11T11:51:23.891Z,61.98
2018-11-11T11:53:51.230Z,62.48
2018-11-11T11:56:18.515Z,61.25
2018-11-11T11:58:46.364Z,60.85
2018-11-11T12:01:13.812Z,61.46
2018-11-11T12:03:41.156Z,61.30
2018-11-11T12:06:08.451Z,61.73
2018-11-11T12:08:35.743Z,61.25
2018-11-11T12:11:02.980Z,62.06
2018-11-11T12:13:30.307Z,61.58
2018-11-11T12:15:57.959Z,62.70
2018-11-11T12:18:25.229Z,62.67
2018-11-11T12:20:52.567Z,61.83
2018-11-11T12:23:20.068Z,61.59
2018-11-11T12:25:47.803Z,60.42
2018-11-11T12:28:16.999Z,60.13
2018-11-11T12:30:45.364Z,60.76
2018-11-11T12:33:12.712Z,59.44
2018-11-11T12:35:40.721Z,59.54
2018-11-11T12:38:08.225Z,59.83
2018-11-11T12:40:35.619Z,61.21
2018-11-11T12:43:02.842Z,61.06
2018-11-11T12:45:30.152Z,60.29
2018-11-11T12:47:57.485Z,60.08
2018-11-11T12:50:24.810Z,58.96
2018-11-11T12:52:52.292Z,58.18
2018-11-11T12:55:19.621Z,58.45
2018-11-11T12:57:46.911Z,58.00
2018-11-11T13:00:14.979Z,57.94
2018-11-11T13:02:43.418Z,56.98
2018-11-11T13:05:11.402Z,57.34
2018-11-11T13:07:39.129Z,56.28
2018-11-11T13:10:10.254Z,56.81
2018-11-11T13:12:41.346Z,55.82
2018-11-11T13:15:09.893Z,55.41
2018-11-11T13:17:38.326Z,55.04
2018-11-11T13:20:09.001Z,55.26
2018-11-11T13:22:36.473Z,54.84
2018-11-11T13:25:04.963Z,54.63
2018-11-11T13:27:32.179Z,55.38
2018-11-11T13:29:59.456Z,55.35
2018-11-11T13:32:26.901Z,55.14
2018-11-11T13:34:54.191Z,54.75
2018-11-11T13:37:21.516Z,54.71
2018-11-11T13:39:49.005Z,54.65
2018-11-11T13:42:16.464Z,55.40
2018-11-11T13:44:43.997Z,54.84
2018-11-11T13:47:11.349Z,55.03
2018-11-11T13:49:38.728Z,55.72
2018-11-11T13:52:06.105Z,54.96
2018-11-11T13:54:33.477Z,54.72
2018-11-11T13:57:00.758Z,55.29
2018-11-11T13:59:28.043Z,56.12
2018-11-11T14:01:55.400Z,56.34
2018-11-11T14:04:22.573Z,56.87
2018-11-11T14:06:50.248Z,56.93
2018-11-11T14:09:17.755Z,57.74
2018-11-11T14:11:45.090Z,58.32
2018-11-11T14:14:12.348Z,58.48
2018-11-11T14:16:39.704Z,58.00
2018-11-11T14:19:07.067Z,58.00
2018-11-11T14:21:34.392Z,58.29
2018-11-11T14:24:02.170Z,58.69
2018-11-11T14:26:29.565Z,59.13
2018-11-11T14:28:56.803Z,59.85
2018-11-11T14:31:24.456Z,59.74
2018-11-11T14:33:51.695Z,58.83
2018-11-11T14:36:19.068Z,59.65
2018-11-11T14:38:46.354Z,59.48
2018-11-11T14:41:13.969Z,59.93
2018-11-11T14:43:41.271Z,59.59
2018-11-11T14:46:08.722Z,60.05
2018-11-11T14:48:36.136Z,60.36
2018-11-11T14:51:03.792Z,59.82
2018-11-11T14:53:31.274Z,60.66
2018-11-11T14:55:58.733Z,60.80
2018-11-11T14:58:26.253Z,60.24
2018-11-11T15:00:53.449Z,60.64
2018-11-11T15:03:20.871Z,60.86
2018-11-11T15:05:48.441Z,60.27
2018-11-11T15:08:15.758Z,60.77
2018-11-11T15:10:43.120Z,61.12
2018-11-11T15:13:12.149Z,61.37
2018-11-11T15:15:39.503Z,61.16
2018-11-11T15:18:07.377Z,60.93
2018-11-11T15:20:34.881Z,61.13
2018-11-11T15:23:02.102Z,61.10
2018-11-11T15:25:30.173Z,61.55
2018-11-11T15:27:57.407Z,62.00
2018-11-11T15:30:26.171Z,61.28
2018-11-11T15:32:54.615Z,60.95
2018-11-11T15:35:22.007Z,61.45
2018-11-11T15:37:50.192Z,62.17
2018-11-11T15:40:24.547Z,61.88
2018-11-11T15:42:51.883Z,61.17
2018-11-11T15:45:21.551Z,61.83
2018-11-11T15:47:48.913Z,61.52
2018-11-11T15:50:18.991Z,62.86
2018-11-11T15:52:50.523Z,62.02
2018-11-11T15:55:18.986Z,62.94
2018-11-11T15:57:46.397Z,62.55
2018-11-11T16:00:19.685Z,63.35
2018-11-11T16:02:47.195Z,63.77
2018-11-11T16:05:15.367Z,63.79
2018-11-11T16:07:43.590Z,63.66
2018-11-11T16:10:12.689Z,64.17
2018-11-11T16:12:40.277Z,63.71
2018-11-11T16:15:11.129Z,64.58
2018-11-11T16:17:38.593Z,64.16
2018-11-11T16:20:09.452Z,64.46
2018-11-11T16:22:36.896Z,64.95
2018-11-11T16:30:03.922Z,65.16
2018-11-11T16:32:31.178Z,64.61
2018-11-11T16:34:58.675Z,65.44
2018-11-11T16:37:25.907Z,65.45
2018-11-11T16:39:53.218Z,65.37
2018-11-11T16:42:20.503Z,65.39
2018-11-11T16:44:47.871Z,65.26
2018-11-11T16:47:15.545Z,66.21
2018-11-11T16:49:42.922Z,65.94
2018-11-11T16:52:10.249Z,66.24
2018-11-11T16:54:37.625Z,67.08
2018-11-11T16:57:05.046Z,66.42
2018-11-11T16:59:32.375Z,67.17
2018-11-11T17:01:59.739Z,67.61
2018-11-11T17:04:27.170Z,67.27
2018-11-11T17:06:54.842Z,67.66
2018-11-11T17:09:22.172Z,67.06
2018-11-11T17:11:49.479Z,67.49
2018-11-11T17:14:16.806Z,67.91
2018-11-11T17:16:44.194Z,68.36
2018-11-11T17:19:11.674Z,68.40
2018-11-11T17:21:39.057Z,68.70
2018-11-11T17:24:06.301Z,68.46
2018-11-11T17:26:34.256Z,68.23
2018-11-11T17:29:01.831Z,69.27
2018-11-11T17:31:29.892Z,69.16
2018-11-11T17:33:57.336Z,69.68
2018-11-11T17:36:24.926Z,69.98
2018-11-11T17:38:52.269Z,70.04
2018-11-11T17:41:19.714Z,69.30
2018-11-11T17:43:47.279Z,70.13
2018-11-11T17:46:14.896Z,69.97
2018-11-11T17:48:42.521Z,70.44
2018-11-11T17:51:10.130Z,70.15
2018-11-11T17:53:37.559Z,70.81
2018-11-11T17:56:05.015Z,71.43
2018-11-11T17:58:32.435Z,70.91
2018-11-11T18:00:59.849Z,71.56
2018-11-11T18:03:27.261Z,71.03
2018-11-11T18:05:54.579Z,71.98
2018-11-11T18:08:22.155Z,71.78
2018-11-11T18:10:49.668Z,72.32
2018-11-11T18:13:17.023Z,72.55
2018-11-11T18:15:44.378Z,72.42
2018-11-11T18:18:11.727Z,72.41
2018-11-11T18:20:39.006Z,72.11
2018-11-11T18:23:06.246Z,72.45
2018-11-11T18:25:33.637Z,72.46
2018-11-11T18:28:01.059Z,72.93
2018-11-11T18:30:30.380Z,72.52
2018-11-11T18:32:57.877Z,72.52
2018-11-11T18:35:25.669Z,72.35
2018-11-11T18:37:53.504Z,73.10
2018-11-11T18:40:22.346Z,72.52
2018-11-11T18:42:49.617Z,73.44
2018-11-11T18:45:18.402Z,72.82
2018-11-11T18:47:46.522Z,73.44
2018-11-11T18:50:17.039Z,73.31
2018-11-11T18:52:44.349Z,72.83
2018-11-11T18:55:11.916Z,73.58
2018-11-11T18:57:39.753Z,73.53
2018-11-11T19:00:13.753Z,73.02
2018-11-11T19:02:41.557Z,72.84
2018-11-11T19:05:10.603Z,73.21
2018-11-11T19:07:38.462Z,72.46
2018-11-11T19:10:07.605Z,73.12
2018-11-11T19:12:35.230Z,73.23
2018-11-11T19:15:02.837Z,72.34
2018-11-11T19:17:30.843Z,73.03
2018-11-11T19:19:58.369Z,72.28
2018-11-11T19:22:26.022Z,72.43
2018-11-11T19:24:53.555Z,72.74
2018-11-11T19:27:21.231Z,72.80
2018-11-11T19:29:49.224Z,72.31
2018-11-11T19:32:16.526Z,72.92
2018-11-11T19:34:43.831Z,73.21
2018-11-11T19:37:11.365Z,72.39
2018-11-11T19:39:39.203Z,72.79
2018-11-11T19:42:06.557Z,72.46
2018-11-11T19:44:34.099Z,73.03
2018-11-11T19:47:01.424Z,73.00
2018-11-11T19:49:28.736Z,73.16
2018-11-11T19:51:56.506Z,73.19
2018-11-11T19:54:23.824Z,73.35
2018-11-11T19:56:51.321Z,72.99
2018-11-11T19:59:18.605Z,73.53
2018-11-11T20:01:46.112Z,73.36
2018-11-11T20:04:13.463Z,73.32
2018-11-11T20:06:40.795Z,73.25
2018-11-11T20:09:10.384Z,73.37
2018-11-11T20:11:39.758Z,73.03
2018-11-11T20:14:07.596Z,73.29
2018-11-11T20:16:41.890Z,72.56
2018-11-11T20:19:09.584Z,72.56
2018-11-11T20:21:36.930Z,72.94
2018-11-11T20:24:04.717Z,72.64
2018-11-11T20:26:32.022Z,73.05
2018-11-11T20:28:59.361Z,73.44
2018-11-11T20:31:27.008Z,72.26
2018-11-11T20:33:54.467Z,72.92
2018-11-11T20:36:24.214Z,72.41
2018-11-11T20:38:52.572Z,73.10
2018-11-11T20:41:20.501Z,73.38
2018-11-11T20:43:48.216Z,72.98
2018-11-11T20:46:15.451Z,73.00
2018-11-11T20:48:42.961Z,72.70
2018-11-11T20:51:10.331Z,72.97
2018-11-11T20:53:37.679Z,72.63
2018-11-11T20:56:05.348Z,72.17
2018-11-11T20:58:33.104Z,71.92
2018-11-11T21:01:04.030Z,72.12
2018-11-11T21:03:32.526Z,72.07
2018-11-11T21:06:00.557Z,72.05
2018-11-11T21:08:27.962Z,72.04
2018-11-11T21:10:56.166Z,71.79
2018-11-11T21:13:24.080Z,72.09
2018-11-11T21:15:51.708Z,72.26
2018-11-11T21:18:20.168Z,71.80
2018-11-11T21:20:47.720Z,72.55
2018-11-11T21:23:16.436Z,72.42
2018-11-11T21:25:44.037Z,71.77
2018-11-11T21:28:14.335Z,72.06
2018-11-11T21:30:41.987Z,71.60
2018-11-11T21:33:09.931Z,71.69
2018-11-11T21:35:37.279Z,72.53
2018-11-11T21:38:04.957Z,72.62
2018-11-11T21:40:32.297Z,72.96
2018-11-11T21:42:59.978Z,73.45
2018-11-11T21:45:28.107Z,72.80
2018-11-11T21:47:55.486Z,73.54
2018-11-11T21:50:24.373Z,73.36
2018-11-11T21:53:01.094Z,72.85
2018-11-11T21:55:28.698Z,73.07
2018-11-11T21:57:57.066Z,73.25
2018-11-11T22:00:24.292Z,73.15
2018-11-11T22:02:51.580Z,73.57
2018-11-11T22:05:19.119Z,73.64
2018-11-11T22:07:46.290Z,73.21
2018-11-11T22:10:14.650Z,73.99
2018-11-11T22:12:42.638Z,73.42
2018-11-11T22:15:11.746Z,73.45
2018-11-11T22:17:40.102Z,73.99
2018-11-11T22:20:08.231Z,73.82
2018-11-11T22:22:36.345Z,74.34
2018-11-11T22:25:04.626Z,74.70
2018-11-11T22:27:32.101Z,74.21
2018-11-11T22:29:59.435Z,74.74
2018-11-11T22:32:26.758Z,74.90
2018-11-11T22:34:54.453Z,75.39
2018-11-11T22:37:21.771Z,74.87
2018-11-11T22:39:49.265Z,75.64
2018-11-11T22:42:16.556Z,75.37
2018-11-11T22:44:43.949Z,75.64
2018-11-11T22:47:11.234Z,75.80
2018-11-11T22:49:38.715Z,76.25
2018-11-11T22:52:07.061Z,75.96
2018-11-11T22:54:34.661Z,76.67
2018-11-11T22:57:02.757Z,76.43
2018-11-11T22:59:31.287Z,76.14
2018-11-11T23:01:58.592Z,76.10
2018-11-11T23:04:25.783Z,76.91
2018-11-11T23:06:53.155Z,76.43
2018-11-11T23:09:20.601Z,76.86
2018-11-11T23:11:47.879Z,76.67
2018-11-11T23:14:15.546Z,76.26
2018-11-11T23:16:43.010Z,76.81
2018-11-11T23:19:10.483Z,77.17
2018-11-11T23:21:37.848Z,77.58
2018-11-11T23:24:05.703Z,77.80
2018-11-11T23:26:33.192Z,78.26
2018-11-11T23:29:00.647Z,78.29
2018-11-11T23:31:28.018Z,78.31
2018-11-11T23:33:56.122Z,78.90
2018-11-11T23:36:23.524Z,78.21
2018-11-11T23:38:51.215Z,77.49
2018-11-11T23:41:19.771Z,76.57
2018-11-11T23:43:47.332Z,75.59
2018-11-11T23:46:15.239Z,74.50
2018-11-11T23:48:42.616Z,74.09
2018-11-11T23:51:10.076Z,73.47
2018-11-11T23:53:37.334Z,73.33
2018-11-11T23:56:05.892Z,72.60
2018-11-11T23:58:33.423Z,71.85
